sensor_id;sensor_type;location;lat;lon;timestamp;temperature;humidity
40670;DHT22;26355;45.528;9.234;2023-04-06T00:00:43;10.80;82.10
40670;DHT22;26355;45.528;9.234;2023-04-06T00:03:09;10.80;82.20
40670;DHT22;26355;45.528;9.234;2023-04-06T00:05:34;10.90;82.50
40670;DHT22;26355;45.528;9.234;2023-04-06T00:08:00;10.80;82.50
40670;DHT22;26355;45.528;9.234;2023-04-06T00:10:26;10.80;82.60
40670;DHT22;26355;45.528;9.234;2023-04-06T00:12:52;10.80;82.30
40670;DHT22;26355;45.528;9.234;2023-04-06T00:15:17;10.80;82.30
40670;DHT22;26355;45.528;9.234;2023-04-06T00:17:43;10.80;82.40
40670;DHT22;26355;45.528;9.234;2023-04-06T00:20:09;11.00;82.30
40670;DHT22;26355;45.528;9.234;2023-04-06T00:22:35;10.70;82.20
40670;DHT22;26355;45.528;9.234;2023-04-06T00:25:01;10.70;82.30
40670;DHT22;26355;45.528;9.234;2023-04-06T00:27:26;10.60;82.10
40670;DHT22;26355;45.528;9.234;2023-04-06T00:29:52;10.60;82.20
40670;DHT22;26355;45.528;9.234;2023-04-06T00:32:18;10.60;82.00
40670;DHT22;26355;45.528;9.234;2023-04-06T00:34:43;10.60;82.10
40670;DHT22;26355;45.528;9.234;2023-04-06T00:37:11;10.60;82.10
40670;DHT22;26355;45.528;9.234;2023-04-06T00:39:37;10.50;82.10
40670;DHT22;26355;45.528;9.234;2023-04-06T00:42:09;10.50;82.30
40670;DHT22;26355;45.528;9.234;2023-04-06T00:44:36;10.40;82.60
40670;DHT22;26355;45.528;9.234;2023-04-06T00:47:02;10.30;82.70
40670;DHT22;26355;45.528;9.234;2023-04-06T00:49:28;10.50;82.90
40670;DHT22;26355;45.528;9.234;2023-04-06T00:51:53;10.30;82.70
40670;DHT22;26355;45.528;9.234;2023-04-06T00:54:19;10.30;82.60
40670;DHT22;26355;45.528;9.234;2023-04-06T00:56:44;10.30;82.80
40670;DHT22;26355;45.528;9.234;2023-04-06T00:59:11;10.40;82.80
40670;DHT22;26355;45.528;9.234;2023-04-06T01:01:37;10.20;82.70
40670;DHT22;26355;45.528;9.234;2023-04-06T01:04:02;10.30;82.80
40670;DHT22;26355;45.528;9.234;2023-04-06T01:06:28;10.40;82.90
40670;DHT22;26355;45.528;9.234;2023-04-06T01:08:54;10.10;82.90
40670;DHT22;26355;45.528;9.234;2023-04-06T01:11:20;10.50;83.20
40670;DHT22;26355;45.528;9.234;2023-04-06T01:13:46;10.10;83.00
40670;DHT22;26355;45.528;9.234;2023-04-06T01:16:11;10.10;83.10
40670;DHT22;26355;45.528;9.234;2023-04-06T01:18:37;10.10;83.20
40670;DHT22;26355;45.528;9.234;2023-04-06T01:21:03;10.10;83.20
40670;DHT22;26355;45.528;9.234;2023-04-06T01:23:29;10.20;83.20
40670;DHT22;26355;45.528;9.234;2023-04-06T01:25:54;10.20;83.30
40670;DHT22;26355;45.528;9.234;2023-04-06T01:28:20;10.90;83.70
40670;DHT22;26355;45.528;9.234;2023-04-06T01:30:46;10.30;83.40
40670;DHT22;26355;45.528;9.234;2023-04-06T01:33:11;10.10;84.10
40670;DHT22;26355;45.528;9.234;2023-04-06T01:35:37;10.10;83.60
40670;DHT22;26355;45.528;9.234;2023-04-06T01:38:03;10.40;83.80
40670;DHT22;26355;45.528;9.234;2023-04-06T01:40:29;10.00;83.70
40670;DHT22;26355;45.528;9.234;2023-04-06T01:42:54;10.00;83.70
40670;DHT22;26355;45.528;9.234;2023-04-06T01:45:20;10.00;83.80
40670;DHT22;26355;45.528;9.234;2023-04-06T01:47:46;10.00;84.00
40670;DHT22;26355;45.528;9.234;2023-04-06T01:50:11;10.10;83.90
40670;DHT22;26355;45.528;9.234;2023-04-06T01:52:38;10.20;83.80
40670;DHT22;26355;45.528;9.234;2023-04-06T01:55:03;10.20;83.80
40670;DHT22;26355;45.528;9.234;2023-04-06T01:57:29;10.10;83.70
40670;DHT22;26355;45.528;9.234;2023-04-06T01:59:55;10.20;83.80
40670;DHT22;26355;45.528;9.234;2023-04-06T02:02:20;10.10;83.90
40670;DHT22;26355;45.528;9.234;2023-04-06T02:04:46;10.00;84.00
40670;DHT22;26355;45.528;9.234;2023-04-06T02:07:11;10.20;84.20
40670;DHT22;26355;45.528;9.234;2023-04-06T02:09:37;10.40;84.30
40670;DHT22;26355;45.528;9.234;2023-04-06T02:12:03;10.20;84.30
40670;DHT22;26355;45.528;9.234;2023-04-06T02:14:28;9.90;84.30
40670;DHT22;26355;45.528;9.234;2023-04-06T02:16:54;10.10;85.10
40670;DHT22;26355;45.528;9.234;2023-04-06T02:19:19;10.00;84.40
40670;DHT22;26355;45.528;9.234;2023-04-06T02:21:45;9.90;84.40
40670;DHT22;26355;45.528;9.234;2023-04-06T02:24:10;9.90;84.50
40670;DHT22;26355;45.528;9.234;2023-04-06T02:26:36;10.30;84.70
40670;DHT22;26355;45.528;9.234;2023-04-06T02:29:02;9.80;85.00
40670;DHT22;26355;45.528;9.234;2023-04-06T02:31:28;9.90;84.60
40670;DHT22;26355;45.528;9.234;2023-04-06T02:33:53;9.80;84.30
40670;DHT22;26355;45.528;9.234;2023-04-06T02:36:19;9.90;84.20
40670;DHT22;26355;45.528;9.234;2023-04-06T02:38:45;9.80;84.20
40670;DHT22;26355;45.528;9.234;2023-04-06T02:41:10;9.80;84.00
40670;DHT22;26355;45.528;9.234;2023-04-06T02:43:36;9.80;83.80
40670;DHT22;26355;45.528;9.234;2023-04-06T02:46:01;9.80;83.80
40670;DHT22;26355;45.528;9.234;2023-04-06T02:48:27;9.80;83.80
40670;DHT22;26355;45.528;9.234;2023-04-06T02:50:53;9.70;83.80
40670;DHT22;26355;45.528;9.234;2023-04-06T02:53:18;9.70;83.80
40670;DHT22;26355;45.528;9.234;2023-04-06T02:55:44;9.80;83.90
40670;DHT22;26355;45.528;9.234;2023-04-06T02:58:09;9.80;84.00
40670;DHT22;26355;45.528;9.234;2023-04-06T03:00:35;10.00;84.10
40670;DHT22;26355;45.528;9.234;2023-04-06T03:03:01;9.60;83.90
40670;DHT22;26355;45.528;9.234;2023-04-06T03:05:27;9.70;83.90
40670;DHT22;26355;45.528;9.234;2023-04-06T03:07:52;9.70;83.70
40670;DHT22;26355;45.528;9.234;2023-04-06T03:10:18;9.70;83.70
40670;DHT22;26355;45.528;9.234;2023-04-06T03:12:43;9.80;83.60
40670;DHT22;26355;45.528;9.234;2023-04-06T03:15:10;9.70;83.60
40670;DHT22;26355;45.528;9.234;2023-04-06T03:17:36;9.70;83.70
40670;DHT22;26355;45.528;9.234;2023-04-06T03:20:02;9.70;83.70
40670;DHT22;26355;45.528;9.234;2023-04-06T03:22:29;9.90;83.70
40670;DHT22;26355;45.528;9.234;2023-04-06T03:24:55;9.70;83.70
40670;DHT22;26355;45.528;9.234;2023-04-06T03:27:20;9.80;83.80
40670;DHT22;26355;45.528;9.234;2023-04-06T03:29:46;9.60;84.00
40670;DHT22;26355;45.528;9.234;2023-04-06T03:32:11;9.60;84.10
40670;DHT22;26355;45.528;9.234;2023-04-06T03:34:43;9.50;84.10
40670;DHT22;26355;45.528;9.234;2023-04-06T03:37:18;9.50;84.20
40670;DHT22;26355;45.528;9.234;2023-04-06T03:39:44;9.60;84.70
40670;DHT22;26355;45.528;9.234;2023-04-06T03:42:09;9.60;84.10
40670;DHT22;26355;45.528;9.234;2023-04-06T03:44:35;9.60;84.10
40670;DHT22;26355;45.528;9.234;2023-04-06T03:47:07;9.70;84.90
40670;DHT22;26355;45.528;9.234;2023-04-06T03:49:32;9.30;84.50
40670;DHT22;26355;45.528;9.234;2023-04-06T03:51:58;9.50;84.60
40670;DHT22;26355;45.528;9.234;2023-04-06T03:54:24;9.40;84.80
40670;DHT22;26355;45.528;9.234;2023-04-06T03:56:49;9.40;84.80
40670;DHT22;26355;45.528;9.234;2023-04-06T03:59:15;9.30;85.10
40670;DHT22;26355;45.528;9.234;2023-04-06T04:01:40;9.30;85.20
40670;DHT22;26355;45.528;9.234;2023-04-06T04:04:06;9.30;85.30
40670;DHT22;26355;45.528;9.234;2023-04-06T04:06:32;9.30;85.30
40670;DHT22;26355;45.528;9.234;2023-04-06T04:09:03;9.20;85.40
40670;DHT22;26355;45.528;9.234;2023-04-06T04:11:29;9.30;85.60
40670;DHT22;26355;45.528;9.234;2023-04-06T04:13:54;8.90;85.50
40670;DHT22;26355;45.528;9.234;2023-04-06T04:16:20;9.30;85.70
40670;DHT22;26355;45.528;9.234;2023-04-06T04:18:46;9.30;85.80
40670;DHT22;26355;45.528;9.234;2023-04-06T04:21:16;9.20;85.70
40670;DHT22;26355;45.528;9.234;2023-04-06T04:23:42;9.30;85.80
40670;DHT22;26355;45.528;9.234;2023-04-06T04:26:07;10.20;86.20
40670;DHT22;26355;45.528;9.234;2023-04-06T04:28:36;9.40;85.80
40670;DHT22;26355;45.528;9.234;2023-04-06T04:31:05;9.50;85.90
40670;DHT22;26355;45.528;9.234;2023-04-06T04:33:31;9.30;85.80
40670;DHT22;26355;45.528;9.234;2023-04-06T04:35:56;9.50;86.00
40670;DHT22;26355;45.528;9.234;2023-04-06T04:38:22;9.30;86.10
40670;DHT22;26355;45.528;9.234;2023-04-06T04:40:47;9.30;86.10
40670;DHT22;26355;45.528;9.234;2023-04-06T04:43:16;9.50;86.20
40670;DHT22;26355;45.528;9.234;2023-04-06T04:45:41;10.20;86.80
40670;DHT22;26355;45.528;9.234;2023-04-06T04:48:07;9.10;86.40
40670;DHT22;26355;45.528;9.234;2023-04-06T04:50:37;9.30;86.70
40670;DHT22;26355;45.528;9.234;2023-04-06T04:53:02;9.30;86.40
40670;DHT22;26355;45.528;9.234;2023-04-06T04:55:31;9.20;86.40
40670;DHT22;26355;45.528;9.234;2023-04-06T04:57:57;9.30;86.50
40670;DHT22;26355;45.528;9.234;2023-04-06T05:00:23;9.10;86.30
40670;DHT22;26355;45.528;9.234;2023-04-06T05:02:48;9.20;86.30
40670;DHT22;26355;45.528;9.234;2023-04-06T05:05:17;9.30;86.40
40670;DHT22;26355;45.528;9.234;2023-04-06T05:07:43;9.30;86.40
40670;DHT22;26355;45.528;9.234;2023-04-06T05:10:08;9.20;86.50
40670;DHT22;26355;45.528;9.234;2023-04-06T05:12:34;9.30;86.30
40670;DHT22;26355;45.528;9.234;2023-04-06T05:15:00;9.20;86.40
40670;DHT22;26355;45.528;9.234;2023-04-06T05:17:26;9.30;86.70
40670;DHT22;26355;45.528;9.234;2023-04-06T05:19:52;9.30;86.60
40670;DHT22;26355;45.528;9.234;2023-04-06T05:22:17;9.90;86.70
40670;DHT22;26355;45.528;9.234;2023-04-06T05:24:43;9.50;86.50
40670;DHT22;26355;45.528;9.234;2023-04-06T05:27:09;9.50;86.20
40670;DHT22;26355;45.528;9.234;2023-04-06T05:29:35;9.60;85.80
40670;DHT22;26355;45.528;9.234;2023-04-06T05:32:01;9.90;85.70
40670;DHT22;26355;45.528;9.234;2023-04-06T05:34:27;9.90;85.70
40670;DHT22;26355;45.528;9.234;2023-04-06T05:36:52;9.90;86.00
40670;DHT22;26355;45.528;9.234;2023-04-06T05:39:18;9.90;86.10
40670;DHT22;26355;45.528;9.234;2023-04-06T05:41:44;10.00;86.00
40670;DHT22;26355;45.528;9.234;2023-04-06T05:44:09;10.20;85.30
40670;DHT22;26355;45.528;9.234;2023-04-06T05:46:35;10.20;84.90
40670;DHT22;26355;45.528;9.234;2023-04-06T05:49:01;10.50;84.60
40670;DHT22;26355;45.528;9.234;2023-04-06T05:51:26;11.00;84.30
40670;DHT22;26355;45.528;9.234;2023-04-06T05:53:52;11.50;84.50
40670;DHT22;26355;45.528;9.234;2023-04-06T05:56:18;12.00;83.20
40670;DHT22;26355;45.528;9.234;2023-04-06T05:58:43;12.20;82.70
40670;DHT22;26355;45.528;9.234;2023-04-06T06:01:09;12.70;81.90
40670;DHT22;26355;45.528;9.234;2023-04-06T06:03:35;13.00;81.40
40670;DHT22;26355;45.528;9.234;2023-04-06T06:06:04;13.40;81.10
40670;DHT22;26355;45.528;9.234;2023-04-06T06:08:30;13.70;79.60
40670;DHT22;26355;45.528;9.234;2023-04-06T06:10:55;13.90;79.30
40670;DHT22;26355;45.528;9.234;2023-04-06T06:13:22;14.20;79.10
40670;DHT22;26355;45.528;9.234;2023-04-06T06:15:49;14.40;78.50
40670;DHT22;26355;45.528;9.234;2023-04-06T06:18:15;14.50;78.10
40670;DHT22;26355;45.528;9.234;2023-04-06T06:20:41;14.60;77.60
40670;DHT22;26355;45.528;9.234;2023-04-06T06:23:06;14.80;77.50
40670;DHT22;26355;45.528;9.234;2023-04-06T06:25:32;14.80;76.70
40670;DHT22;26355;45.528;9.234;2023-04-06T06:27:58;15.00;76.80
40670;DHT22;26355;45.528;9.234;2023-04-06T06:30:24;15.00;76.20
40670;DHT22;26355;45.528;9.234;2023-04-06T06:33:09;15.00;75.90
40670;DHT22;26355;45.528;9.234;2023-04-06T06:35:34;15.40;73.90
40670;DHT22;26355;45.528;9.234;2023-04-06T06:38:00;15.40;75.10
40670;DHT22;26355;45.528;9.234;2023-04-06T06:40:25;15.40;74.80
40670;DHT22;26355;45.528;9.234;2023-04-06T06:42:52;15.60;74.40
40670;DHT22;26355;45.528;9.234;2023-04-06T06:45:17;15.70;74.00
40670;DHT22;26355;45.528;9.234;2023-04-06T06:47:43;16.00;73.90
40670;DHT22;26355;45.528;9.234;2023-04-06T06:50:09;16.10;73.30
40670;DHT22;26355;45.528;9.234;2023-04-06T06:52:35;16.00;73.00
40670;DHT22;26355;45.528;9.234;2023-04-06T06:55:00;16.30;72.50
40670;DHT22;26355;45.528;9.234;2023-04-06T06:57:27;16.30;72.20
40670;DHT22;26355;45.528;9.234;2023-04-06T06:59:53;16.20;71.70
40670;DHT22;26355;45.528;9.234;2023-04-06T07:02:18;16.10;71.80
40670;DHT22;26355;45.528;9.234;2023-04-06T07:04:47;16.00;70.50
40670;DHT22;26355;45.528;9.234;2023-04-06T07:07:14;15.90;70.10
40670;DHT22;26355;45.528;9.234;2023-04-06T07:09:39;15.70;70.60
40670;DHT22;26355;45.528;9.234;2023-04-06T07:12:05;15.50;71.00
40670;DHT22;26355;45.528;9.234;2023-04-06T07:14:31;15.80;71.40
40670;DHT22;26355;45.528;9.234;2023-04-06T07:16:57;15.70;70.90
40670;DHT22;26355;45.528;9.234;2023-04-06T07:19:22;15.30;68.50
40670;DHT22;26355;45.528;9.234;2023-04-06T07:21:48;15.20;70.10
40670;DHT22;26355;45.528;9.234;2023-04-06T07:24:15;15.30;70.40
40670;DHT22;26355;45.528;9.234;2023-04-06T07:26:41;15.60;70.00
40670;DHT22;26355;45.528;9.234;2023-04-06T07:29:07;15.40;68.50
40670;DHT22;26355;45.528;9.234;2023-04-06T07:31:33;15.30;67.90
40670;DHT22;26355;45.528;9.234;2023-04-06T07:34:01;15.10;67.90
40670;DHT22;26355;45.528;9.234;2023-04-06T07:36:30;15.10;68.50
40670;DHT22;26355;45.528;9.234;2023-04-06T07:38:55;14.90;67.00
40670;DHT22;26355;45.528;9.234;2023-04-06T07:41:24;14.60;68.40
40670;DHT22;26355;45.528;9.234;2023-04-06T07:43:53;14.70;68.70
40670;DHT22;26355;45.528;9.234;2023-04-06T07:46:18;14.80;68.40
40670;DHT22;26355;45.528;9.234;2023-04-06T07:48:44;14.90;68.00
40670;DHT22;26355;45.528;9.234;2023-04-06T07:51:10;14.90;66.70
40670;DHT22;26355;45.528;9.234;2023-04-06T07:53:39;15.00;66.40
40670;DHT22;26355;45.528;9.234;2023-04-06T07:56:08;15.00;66.20
40670;DHT22;26355;45.528;9.234;2023-04-06T07:58:33;15.00;66.00
40670;DHT22;26355;45.528;9.234;2023-04-06T08:00:59;15.00;65.70
40670;DHT22;26355;45.528;9.234;2023-04-06T08:03:26;14.90;65.10
40670;DHT22;26355;45.528;9.234;2023-04-06T08:05:52;14.80;65.60
40670;DHT22;26355;45.528;9.234;2023-04-06T08:08:18;14.90;66.20
40670;DHT22;26355;45.528;9.234;2023-04-06T08:10:44;14.90;66.20
40670;DHT22;26355;45.528;9.234;2023-04-06T08:13:10;14.90;65.60
40670;DHT22;26355;45.528;9.234;2023-04-06T08:15:36;14.70;64.90
40670;DHT22;26355;45.528;9.234;2023-04-06T08:18:01;14.60;65.40
40670;DHT22;26355;45.528;9.234;2023-04-06T08:20:27;14.70;66.50
40670;DHT22;26355;45.528;9.234;2023-04-06T08:22:56;14.70;66.30
40670;DHT22;26355;45.528;9.234;2023-04-06T08:25:21;14.60;66.70
40670;DHT22;26355;45.528;9.234;2023-04-06T08:27:47;14.80;67.70
40670;DHT22;26355;45.528;9.234;2023-04-06T08:30:15;15.00;66.70
40670;DHT22;26355;45.528;9.234;2023-04-06T08:32:41;14.90;64.80
40670;DHT22;26355;45.528;9.234;2023-04-06T08:35:07;14.80;63.40
40670;DHT22;26355;45.528;9.234;2023-04-06T08:37:33;14.70;64.20
40670;DHT22;26355;45.528;9.234;2023-04-06T08:39:59;14.50;64.20
40670;DHT22;26355;45.528;9.234;2023-04-06T08:42:25;14.40;64.50
40670;DHT22;26355;45.528;9.234;2023-04-06T08:44:51;14.30;65.20
40670;DHT22;26355;45.528;9.234;2023-04-06T08:47:18;14.60;65.50
40670;DHT22;26355;45.528;9.234;2023-04-06T08:49:44;14.60;65.50
40670;DHT22;26355;45.528;9.234;2023-04-06T08:52:11;14.80;66.00
40670;DHT22;26355;45.528;9.234;2023-04-06T08:54:38;14.90;65.80
40670;DHT22;26355;45.528;9.234;2023-04-06T08:57:05;15.00;65.60
40670;DHT22;26355;45.528;9.234;2023-04-06T08:59:31;15.20;66.10
40670;DHT22;26355;45.528;9.234;2023-04-06T09:01:57;15.50;66.00
40670;DHT22;26355;45.528;9.234;2023-04-06T09:04:25;15.60;65.40
40670;DHT22;26355;45.528;9.234;2023-04-06T09:06:51;15.60;65.60
40670;DHT22;26355;45.528;9.234;2023-04-06T09:09:17;15.80;65.90
40670;DHT22;26355;45.528;9.234;2023-04-06T09:11:50;16.00;65.70
40670;DHT22;26355;45.528;9.234;2023-04-06T09:14:17;15.30;64.60
40670;DHT22;26355;45.528;9.234;2023-04-06T09:16:44;16.10;65.00
40670;DHT22;26355;45.528;9.234;2023-04-06T09:19:11;16.10;64.80
40670;DHT22;26355;45.528;9.234;2023-04-06T09:21:38;15.90;63.70
40670;DHT22;26355;45.528;9.234;2023-04-06T09:24:07;16.00;64.40
40670;DHT22;26355;45.528;9.234;2023-04-06T09:26:44;15.90;63.00
40670;DHT22;26355;45.528;9.234;2023-04-06T09:29:22;15.60;63.10
40670;DHT22;26355;45.528;9.234;2023-04-06T09:31:48;15.70;62.60
40670;DHT22;26355;45.528;9.234;2023-04-06T09:34:21;15.70;63.20
40670;DHT22;26355;45.528;9.234;2023-04-06T09:36:48;15.90;63.40
40670;DHT22;26355;45.528;9.234;2023-04-06T09:39:13;15.90;63.20
40670;DHT22;26355;45.528;9.234;2023-04-06T09:41:40;16.00;63.70
40670;DHT22;26355;45.528;9.234;2023-04-06T09:46:37;16.30;63.10
40670;DHT22;26355;45.528;9.234;2023-04-06T09:49:05;16.60;62.90
40670;DHT22;26355;45.528;9.234;2023-04-06T09:51:40;16.80;63.20
40670;DHT22;26355;45.528;9.234;2023-04-06T09:54:07;16.90;63.20
40670;DHT22;26355;45.528;9.234;2023-04-06T09:56:47;17.00;63.20
40670;DHT22;26355;45.528;9.234;2023-04-06T09:59:53;17.10;63.20
40670;DHT22;26355;45.528;9.234;2023-04-06T10:02:45;17.10;61.30
40670;DHT22;26355;45.528;9.234;2023-04-06T10:07:42;17.50;62.80
40670;DHT22;26355;45.528;9.234;2023-04-06T10:10:10;17.70;63.30
40670;DHT22;26355;45.528;9.234;2023-04-06T10:12:38;17.60;62.20
40670;DHT22;26355;45.528;9.234;2023-04-06T10:15:06;17.60;61.70
40670;DHT22;26355;45.528;9.234;2023-04-06T10:17:32;17.60;61.80
40670;DHT22;26355;45.528;9.234;2023-04-06T10:20:29;17.60;62.00
40670;DHT22;26355;45.528;9.234;2023-04-06T10:23:11;17.50;61.00
40670;DHT22;26355;45.528;9.234;2023-04-06T10:25:55;17.20;60.60
40670;DHT22;26355;45.528;9.234;2023-04-06T10:28:21;17.30;62.00
40670;DHT22;26355;45.528;9.234;2023-04-06T10:30:47;17.30;61.90
40670;DHT22;26355;45.528;9.234;2023-04-06T10:33:20;17.30;60.80
40670;DHT22;26355;45.528;9.234;2023-04-06T10:35:46;17.30;61.00
40670;DHT22;26355;45.528;9.234;2023-04-06T10:38:12;17.50;62.30
40670;DHT22;26355;45.528;9.234;2023-04-06T10:40:41;17.70;61.70
40670;DHT22;26355;45.528;9.234;2023-04-06T10:43:12;17.80;62.00
40670;DHT22;26355;45.528;9.234;2023-04-06T10:45:38;17.70;61.40
40670;DHT22;26355;45.528;9.234;2023-04-06T10:48:18;17.70;61.40
40670;DHT22;26355;45.528;9.234;2023-04-06T10:50:47;17.80;60.90
40670;DHT22;26355;45.528;9.234;2023-04-06T10:53:24;17.70;61.20
40670;DHT22;26355;45.528;9.234;2023-04-06T10:55:59;17.40;60.40
40670;DHT22;26355;45.528;9.234;2023-04-06T10:58:27;17.40;60.30
40670;DHT22;26355;45.528;9.234;2023-04-06T11:00:54;17.50;61.20
40670;DHT22;26355;45.528;9.234;2023-04-06T11:03:23;17.70;61.20
40670;DHT22;26355;45.528;9.234;2023-04-06T11:05:50;17.70;61.20
40670;DHT22;26355;45.528;9.234;2023-04-06T11:08:32;17.70;60.80
40670;DHT22;26355;45.528;9.234;2023-04-06T11:11:09;17.60;59.80
40670;DHT22;26355;45.528;9.234;2023-04-06T11:13:51;17.50;60.50
40670;DHT22;26355;45.528;9.234;2023-04-06T11:16:26;17.50;60.00
40670;DHT22;26355;45.528;9.234;2023-04-06T11:19:11;17.30;59.80
40670;DHT22;26355;45.528;9.234;2023-04-06T11:21:44;17.30;60.30
40670;DHT22;26355;45.528;9.234;2023-04-06T11:24:16;17.50;60.80
40670;DHT22;26355;45.528;9.234;2023-04-06T11:26:56;17.60;60.20
40670;DHT22;26355;45.528;9.234;2023-04-06T11:29:29;17.60;60.00
40670;DHT22;26355;45.528;9.234;2023-04-06T11:32:00;17.60;60.50
40670;DHT22;26355;45.528;9.234;2023-04-06T11:34:27;17.70;59.80
40670;DHT22;26355;45.528;9.234;2023-04-06T11:36:58;17.70;60.00
40670;DHT22;26355;45.528;9.234;2023-04-06T11:39:25;17.50;60.00
40670;DHT22;26355;45.528;9.234;2023-04-06T11:41:54;17.60;60.70
40670;DHT22;26355;45.528;9.234;2023-04-06T11:44:35;17.60;60.90
40670;DHT22;26355;45.528;9.234;2023-04-06T11:47:06;17.80;63.10
40670;DHT22;26355;45.528;9.234;2023-04-06T11:49:37;17.80;61.80
40670;DHT22;26355;45.528;9.234;2023-04-06T11:52:13;17.80;63.30
40670;DHT22;26355;45.528;9.234;2023-04-06T11:54:39;18.10;63.50
40670;DHT22;26355;45.528;9.234;2023-04-06T11:57:09;18.30;62.10
40670;DHT22;26355;45.528;9.234;2023-04-06T11:59:35;18.30;61.90
40670;DHT22;26355;45.528;9.234;2023-04-06T12:02:02;18.40;61.70
40670;DHT22;26355;45.528;9.234;2023-04-06T12:04:28;18.40;61.80
40670;DHT22;26355;45.528;9.234;2023-04-06T12:06:54;18.60;62.20
40670;DHT22;26355;45.528;9.234;2023-04-06T12:09:20;18.70;62.40
40670;DHT22;26355;45.528;9.234;2023-04-06T12:11:46;18.80;61.90
40670;DHT22;26355;45.528;9.234;2023-04-06T12:14:12;18.80;61.90
40670;DHT22;26355;45.528;9.234;2023-04-06T12:16:39;18.80;60.80
40670;DHT22;26355;45.528;9.234;2023-04-06T12:19:05;18.80;60.40
40670;DHT22;26355;45.528;9.234;2023-04-06T12:21:31;18.50;60.10
40670;DHT22;26355;45.528;9.234;2023-04-06T12:23:58;18.60;61.40
40670;DHT22;26355;45.528;9.234;2023-04-06T12:26:24;18.70;61.70
40670;DHT22;26355;45.528;9.234;2023-04-06T12:28:50;18.70;61.20
40670;DHT22;26355;45.528;9.234;2023-04-06T12:31:17;18.40;60.30
40670;DHT22;26355;45.528;9.234;2023-04-06T12:33:46;18.30;61.40
40670;DHT22;26355;45.528;9.234;2023-04-06T12:36:15;18.50;61.40
40670;DHT22;26355;45.528;9.234;2023-04-06T12:38:44;18.60;62.30
40670;DHT22;26355;45.528;9.234;2023-04-06T12:41:11;18.70;61.60
40670;DHT22;26355;45.528;9.234;2023-04-06T12:43:38;18.50;61.20
40670;DHT22;26355;45.528;9.234;2023-04-06T12:46:04;18.60;61.70
40670;DHT22;26355;45.528;9.234;2023-04-06T12:48:30;18.70;61.00
40670;DHT22;26355;45.528;9.234;2023-04-06T12:51:01;18.50;60.60
40670;DHT22;26355;45.528;9.234;2023-04-06T12:53:27;18.50;61.70
40670;DHT22;26355;45.528;9.234;2023-04-06T12:55:56;18.60;61.40
40670;DHT22;26355;45.528;9.234;2023-04-06T12:58:23;18.80;61.00
40670;DHT22;26355;45.528;9.234;2023-04-06T13:00:49;18.90;60.70
40670;DHT22;26355;45.528;9.234;2023-04-06T13:03:16;18.70;60.30
40670;DHT22;26355;45.528;9.234;2023-04-06T13:05:47;18.60;60.30
40670;DHT22;26355;45.528;9.234;2023-04-06T13:08:14;18.70;61.10
40670;DHT22;26355;45.528;9.234;2023-04-06T13:10:51;18.60;61.80
40670;DHT22;26355;45.528;9.234;2023-04-06T13:13:25;18.50;60.20
40670;DHT22;26355;45.528;9.234;2023-04-06T13:15:53;18.40;60.60
40670;DHT22;26355;45.528;9.234;2023-04-06T13:18:19;18.30;60.50
40670;DHT22;26355;45.528;9.234;2023-04-06T13:20:46;18.00;60.80
40670;DHT22;26355;45.528;9.234;2023-04-06T13:23:12;18.20;61.00
40670;DHT22;26355;45.528;9.234;2023-04-06T13:25:38;18.20;61.50
40670;DHT22;26355;45.528;9.234;2023-04-06T13:28:03;18.20;61.60
40670;DHT22;26355;45.528;9.234;2023-04-06T13:30:29;18.20;61.50
40670;DHT22;26355;45.528;9.234;2023-04-06T13:32:55;18.10;61.20
40670;DHT22;26355;45.528;9.234;2023-04-06T13:35:20;18.20;61.40
40670;DHT22;26355;45.528;9.234;2023-04-06T13:37:46;18.20;61.70
40670;DHT22;26355;45.528;9.234;2023-04-06T13:40:12;18.30;61.80
40670;DHT22;26355;45.528;9.234;2023-04-06T13:42:37;18.20;61.30
40670;DHT22;26355;45.528;9.234;2023-04-06T13:45:05;18.30;61.60
40670;DHT22;26355;45.528;9.234;2023-04-06T13:47:31;18.30;61.60
40670;DHT22;26355;45.528;9.234;2023-04-06T13:49:57;18.20;61.60
40670;DHT22;26355;45.528;9.234;2023-04-06T13:52:22;18.20;61.90
40670;DHT22;26355;45.528;9.234;2023-04-06T13:54:49;18.20;61.60
40670;DHT22;26355;45.528;9.234;2023-04-06T13:57:14;18.10;61.50
40670;DHT22;26355;45.528;9.234;2023-04-06T13:59:40;18.20;62.10
40670;DHT22;26355;45.528;9.234;2023-04-06T14:02:10;18.30;62.20
40670;DHT22;26355;45.528;9.234;2023-04-06T14:04:36;18.40;62.50
40670;DHT22;26355;45.528;9.234;2023-04-06T14:07:03;18.20;62.30
40670;DHT22;26355;45.528;9.234;2023-04-06T14:09:31;18.40;62.90
40670;DHT22;26355;45.528;9.234;2023-04-06T14:12:00;18.40;62.20
40670;DHT22;26355;45.528;9.234;2023-04-06T14:14:29;18.30;62.50
40670;DHT22;26355;45.528;9.234;2023-04-06T14:16:54;18.30;62.00
40670;DHT22;26355;45.528;9.234;2023-04-06T14:19:20;18.30;61.70
40670;DHT22;26355;45.528;9.234;2023-04-06T14:21:48;18.10;61.50
40670;DHT22;26355;45.528;9.234;2023-04-06T14:24:15;18.30;61.70
40670;DHT22;26355;45.528;9.234;2023-04-06T14:26:41;18.20;62.50
40670;DHT22;26355;45.528;9.234;2023-04-06T14:29:08;18.10;61.10
40670;DHT22;26355;45.528;9.234;2023-04-06T14:31:34;18.20;61.50
40670;DHT22;26355;45.528;9.234;2023-04-06T14:34:02;18.20;61.40
40670;DHT22;26355;45.528;9.234;2023-04-06T14:36:28;18.10;61.50
40670;DHT22;26355;45.528;9.234;2023-04-06T14:38:58;18.10;61.50
40670;DHT22;26355;45.528;9.234;2023-04-06T14:41:24;18.20;61.80
40670;DHT22;26355;45.528;9.234;2023-04-06T14:43:53;18.30;61.50
40670;DHT22;26355;45.528;9.234;2023-04-06T14:46:18;18.20;61.20
40670;DHT22;26355;45.528;9.234;2023-04-06T14:48:44;18.20;61.50
40670;DHT22;26355;45.528;9.234;2023-04-06T14:51:10;18.20;61.40
40670;DHT22;26355;45.528;9.234;2023-04-06T14:53:36;18.10;61.30
40670;DHT22;26355;45.528;9.234;2023-04-06T14:56:02;18.10;61.60
40670;DHT22;26355;45.528;9.234;2023-04-06T14:58:28;18.20;61.30
40670;DHT22;26355;45.528;9.234;2023-04-06T15:01:00;18.10;61.00
40670;DHT22;26355;45.528;9.234;2023-04-06T15:03:27;18.20;60.90
40670;DHT22;26355;45.528;9.234;2023-04-06T15:05:53;18.30;60.40
40670;DHT22;26355;45.528;9.234;2023-04-06T15:08:19;18.40;60.30
40670;DHT22;26355;45.528;9.234;2023-04-06T15:10:48;18.40;60.00
40670;DHT22;26355;45.528;9.234;2023-04-06T15:13:14;18.60;60.00
40670;DHT22;26355;45.528;9.234;2023-04-06T15:15:41;18.50;59.30
40670;DHT22;26355;45.528;9.234;2023-04-06T15:18:07;18.60;58.90
40670;DHT22;26355;45.528;9.234;2023-04-06T15:20:33;18.50;59.10
40670;DHT22;26355;45.528;9.234;2023-04-06T15:22:58;18.50;59.20
40670;DHT22;26355;45.528;9.234;2023-04-06T15:25:24;18.60;59.30
40670;DHT22;26355;45.528;9.234;2023-04-06T15:27:49;18.60;59.00
40670;DHT22;26355;45.528;9.234;2023-04-06T15:30:15;18.50;58.90
40670;DHT22;26355;45.528;9.234;2023-04-06T15:33:00;18.60;59.00
40670;DHT22;26355;45.528;9.234;2023-04-06T15:35:26;18.60;59.40
40670;DHT22;26355;45.528;9.234;2023-04-06T15:37:54;18.50;59.00
40670;DHT22;26355;45.528;9.234;2023-04-06T15:40:20;18.40;59.10